createdAt,value
2018-06-05T00:00:52.061Z,989.05
2018-06-05T00:01:52.047Z,988.99
2018-06-05T00:02:52.035Z,989.00
2018-06-05T00:03:52.024Z,988.99
2018-06-05T00:04:52.013Z,989.05
2018-06-05T00:05:51.993Z,989.01
2018-06-05T00:06:51.990Z,989.03
2018-06-05T00:07:51.969Z,989.03
2018-06-05T00:08:51.948Z,989.04
2018-06-05T00:09:51.943Z,989.07
2018-06-05T00:10:51.924Z,989.04
2018-06-05T00:11:51.908Z,989.09
2018-06-05T00:12:51.898Z,989.05
2018-06-05T00:13:51.882Z,989.07
2018-06-05T00:14:51.869Z,989.08
2018-06-05T00:15:51.854Z,989.06
2018-06-05T00:16:51.841Z,989.09
2018-06-05T00:17:51.821Z,989.08
2018-06-05T00:18:51.811Z,989.07
2018-06-05T00:19:51.797Z,989.09
2018-06-05T00:20:51.791Z,989.07
2018-06-05T00:21:51.763Z,989.09
2018-06-05T00:22:51.760Z,989.10
2018-06-05T00:23:51.744Z,989.07
2018-06-05T00:24:51.731Z,989.07
2018-06-05T00:25:51.715Z,989.08
2018-06-05T00:26:51.750Z,989.08
2018-06-05T00:27:51.684Z,989.05
2018-06-05T00:28:51.668Z,989.03
2018-06-05T00:29:51.664Z,989.03
2018-06-05T00:30:51.648Z,989.04
2018-06-05T00:31:51.632Z,989.04
2018-06-05T00:32:51.616Z,989.03
2018-06-05T00:33:51.604Z,989.03
2018-06-05T00:34:51.598Z,989.01
2018-06-05T00:35:51.575Z,988.99
2018-06-05T00:36:51.553Z,989.05
2018-06-05T00:37:51.546Z,989.05
2018-06-05T00:38:51.530Z,989.08
2018-06-05T00:39:51.517Z,989.08
2018-06-05T00:40:51.504Z,989.09
2018-06-05T00:41:51.489Z,989.11
2018-06-05T00:42:51.476Z,989.12
2018-06-05T00:43:51.467Z,989.08
2018-06-05T00:44:51.451Z,989.07
2018-06-05T00:45:51.438Z,989.08
2018-06-05T00:46:51.425Z,989.06
2018-06-05T00:47:51.409Z,989.06
2018-06-05T00:48:51.396Z,989.11
2018-06-05T00:49:51.380Z,989.10
2018-06-05T00:50:51.364Z,989.13
2018-06-05T00:51:51.357Z,989.12
2018-06-05T00:52:51.338Z,989.14
2018-06-05T00:53:51.327Z,989.14
2018-06-05T00:54:51.311Z,989.15
2018-06-05T00:55:51.298Z,989.15
2018-06-05T00:56:51.282Z,989.17
2018-06-05T00:57:51.261Z,989.16
2018-06-05T00:58:51.256Z,989.14
2018-06-05T00:59:51.240Z,989.13
2018-06-05T01:00:51.224Z,989.15
2018-06-05T01:01:51.214Z,989.13
2018-06-05T01:02:51.195Z,989.10
2018-06-05T01:03:51.176Z,989.12
2018-06-05T01:04:51.164Z,989.13
2018-06-05T01:05:51.154Z,989.12
2018-06-05T01:06:51.138Z,989.14
2018-06-05T01:07:51.128Z,989.13
2018-06-05T01:08:51.106Z,989.13
2018-06-05T01:09:51.098Z,989.13
2018-06-05T01:10:51.084Z,989.12
2018-06-05T01:11:51.068Z,989.13
2018-06-05T01:12:51.055Z,989.10
2018-06-05T01:13:51.039Z,989.10
2018-06-05T01:14:51.026Z,989.05
2018-06-05T01:15:51.010Z,989.09
2018-06-05T01:16:50.991Z,989.04
2018-06-05T01:17:50.981Z,989.01
2018-06-05T01:18:50.965Z,989.04
2018-06-05T01:19:50.956Z,989.04
2018-06-05T01:20:50.937Z,989.03
2018-06-05T01:21:50.924Z,989.04
2018-06-05T01:22:50.913Z,989.07
2018-06-05T01:23:50.897Z,989.04
2018-06-05T01:24:50.894Z,989.05
2018-06-05T01:25:50.872Z,989.06
2018-06-05T01:26:50.858Z,989.09
2018-06-05T01:27:50.843Z,989.08
2018-06-05T01:28:50.820Z,989.09
2018-06-05T01:29:50.808Z,989.10
2018-06-05T01:30:50.794Z,989.10
2018-06-05T01:31:50.779Z,989.11
2018-06-05T01:32:50.769Z,989.09
2018-06-05T01:33:50.750Z,989.13
2018-06-05T01:34:50.734Z,989.12
2018-06-05T01:35:50.721Z,989.15
2018-06-05T01:36:50.710Z,989.12
2018-06-05T01:37:50.694Z,989.13
2018-06-05T01:38:50.681Z,989.11
2018-06-05T01:39:50.665Z,989.08
2018-06-05T01:40:50.654Z,989.07
2018-06-05T01:41:50.632Z,989.08
2018-06-05T01:42:50.623Z,989.09
2018-06-05T01:43:50.609Z,989.10
2018-06-05T01:44:50.594Z,989.09
2018-06-05T01:45:50.585Z,989.07
2018-06-05T01:46:50.565Z,989.09
2018-06-05T01:47:50.552Z,989.04
2018-06-05T01:48:50.538Z,989.05
2018-06-05T01:49:50.528Z,989.03
2018-06-05T01:50:50.510Z,989.05
2018-06-05T01:51:50.496Z,989.03
2018-06-05T01:52:50.475Z,989.04
2018-06-05T01:53:50.476Z,989.04
2018-06-05T01:54:50.448Z,989.07
2018-06-05T01:55:50.433Z,989.08
2018-06-05T01:56:50.417Z,989.08
2018-06-05T01:57:50.408Z,989.05
2018-06-05T01:58:50.392Z,989.09
2018-06-05T01:59:50.376Z,989.09
2018-06-05T02:00:50.364Z,989.09
2018-06-05T02:01:50.354Z,989.12
2018-06-05T02:02:50.338Z,989.12
2018-06-05T02:03:50.319Z,989.08
2018-06-05T02:04:50.304Z,989.11
2018-06-05T02:05:50.294Z,989.08
2018-06-05T02:06:50.274Z,989.10
2018-06-05T02:07:50.258Z,989.12
2018-06-05T02:08:50.244Z,989.12
2018-06-05T02:09:50.231Z,989.10
2018-06-05T02:10:50.215Z,989.11
2018-06-05T02:11:50.206Z,989.14
2018-06-05T02:12:50.186Z,989.13
2018-06-05T02:13:50.170Z,989.17
2018-06-05T02:14:50.151Z,989.15
2018-06-05T02:15:50.145Z,989.17
2018-06-05T02:16:50.135Z,989.14
2018-06-05T02:17:50.119Z,989.19
2018-06-05T02:18:50.103Z,989.16
2018-06-05T02:19:50.087Z,989.17
2018-06-05T02:20:50.081Z,989.13
2018-06-05T02:21:50.055Z,989.13
2018-06-05T02:22:50.039Z,989.14
2018-06-05T02:23:50.027Z,989.13
2018-06-05T02:24:50.013Z,989.13
2018-06-05T02:25:49.998Z,989.10
2018-06-05T02:26:49.985Z,989.14
2018-06-05T02:27:49.971Z,989.11
2018-06-05T02:28:49.956Z,989.13
2018-06-05T02:29:49.940Z,989.11
2018-06-05T02:30:49.936Z,989.13
2018-06-05T02:31:49.919Z,989.07
2018-06-05T02:32:49.898Z,989.09
2018-06-05T02:33:49.885Z,989.08
2018-06-05T02:34:49.870Z,989.08
2018-06-05T02:35:49.850Z,989.09
2018-06-05T02:36:49.837Z,989.07
2018-06-05T02:37:49.821Z,989.05
2018-06-05T02:38:49.812Z,989.05
2018-06-05T02:39:49.796Z,989.07
2018-06-05T02:40:49.780Z,989.07
2018-06-05T02:41:49.767Z,989.08
2018-06-05T02:42:49.751Z,989.07
2018-06-05T02:43:49.732Z,989.06
2018-06-05T02:44:49.719Z,989.10
2018-06-05T02:45:49.702Z,989.14
2018-06-05T02:46:49.689Z,989.07
2018-06-05T02:47:49.670Z,989.13
2018-06-05T02:48:49.654Z,989.12
2018-06-05T02:49:49.647Z,989.16
2018-06-05T02:50:49.631Z,989.18
2018-06-05T02:51:49.623Z,989.20
2018-06-05T02:52:49.606Z,989.19
2018-06-05T02:53:49.581Z,989.18
2018-06-05T02:54:49.572Z,989.15
2018-06-05T02:55:49.552Z,989.17
2018-06-05T02:56:49.543Z,989.14
2018-06-05T02:57:49.526Z,989.19
2018-06-05T02:58:49.520Z,989.24
2018-06-05T02:59:49.500Z,989.21
2018-06-05T03:00:49.486Z,989.24
2018-06-05T03:01:49.470Z,989.24
2018-06-05T03:02:49.457Z,989.24
2018-06-05T03:03:49.441Z,989.26
2018-06-05T03:04:49.419Z,989.28
2018-06-05T03:05:49.409Z,989.24
2018-06-05T03:06:49.390Z,989.26
2018-06-05T03:07:49.380Z,989.30
2018-06-05T03:08:49.363Z,989.28
2018-06-05T03:09:49.352Z,989.28
2018-06-05T03:10:49.339Z,989.29
2018-06-05T03:11:49.320Z,989.25
2018-06-05T03:12:49.305Z,989.32
2018-06-05T03:13:49.293Z,989.26
2018-06-05T03:14:49.275Z,989.26
2018-06-05T03:15:49.264Z,989.29
2018-06-05T03:16:49.244Z,989.29
2018-06-05T03:17:49.234Z,989.30
2018-06-05T03:18:49.222Z,989.33
2018-06-05T03:19:49.201Z,989.35
2018-06-05T03:20:49.186Z,989.36
2018-06-05T03:21:49.173Z,989.37
2018-06-05T03:22:49.153Z,989.39
2018-06-05T03:23:49.167Z,989.40
2018-06-05T03:24:49.125Z,989.42
2018-06-05T03:25:49.115Z,989.45
2018-06-05T03:26:49.094Z,989.44
2018-06-05T03:27:49.080Z,989.46
2018-06-05T03:28:49.067Z,989.45
2018-06-05T03:29:49.055Z,989.46
2018-06-05T03:30:49.033Z,989.47
2018-06-05T03:31:49.026Z,989.49
2018-06-05T03:32:49.004Z,989.49
2018-06-05T03:33:48.995Z,989.49
2018-06-05T03:34:48.978Z,989.52
2018-06-05T03:35:48.966Z,989.53
2018-06-05T03:36:48.959Z,989.53
2018-06-05T03:37:48.935Z,989.52
2018-06-05T03:38:48.920Z,989.53
2018-06-05T03:39:48.909Z,989.53
2018-06-05T03:40:48.894Z,989.51
2018-06-05T03:41:48.882Z,989.55
2018-06-05T03:42:48.861Z,989.53
2018-06-05T03:43:48.846Z,989.58
2018-06-05T03:44:48.832Z,989.55
2018-06-05T03:45:48.816Z,989.54
2018-06-05T03:46:48.803Z,989.55
2018-06-05T03:47:48.784Z,989.54
2018-06-05T03:48:48.774Z,989.55
2018-06-05T03:49:48.755Z,989.55
2018-06-05T03:50:48.739Z,989.59
2018-06-05T03:51:48.726Z,989.56
2018-06-05T03:52:48.711Z,989.56
2018-06-05T03:53:48.698Z,989.57
2018-06-05T03:54:48.682Z,989.59
2018-06-05T03:55:48.669Z,989.57
2018-06-05T03:56:48.650Z,989.59
2018-06-05T03:57:48.635Z,989.59
2018-06-05T03:58:48.618Z,989.59
2018-06-05T03:59:48.609Z,989.58
2018-06-05T04:00:48.593Z,989.59
2018-06-05T04:01:48.580Z,989.62
2018-06-05T04:02:48.564Z,989.64
2018-06-05T04:03:48.553Z,989.63
2018-06-05T04:04:48.538Z,989.63
2018-06-05T04:05:48.519Z,989.59
2018-06-05T04:06:48.505Z,989.64
2018-06-05T04:07:48.489Z,989.62
2018-06-05T04:08:48.480Z,989.63
2018-06-05T04:09:48.461Z,989.65
2018-06-05T04:10:48.447Z,989.65
2018-06-05T04:11:48.432Z,989.68
2018-06-05T04:12:48.419Z,989.64
2018-06-05T04:13:48.399Z,989.69
2018-06-05T04:14:48.391Z,989.63
2018-06-05T04:15:48.370Z,989.63
2018-06-05T04:16:48.365Z,989.63
2018-06-05T04:17:48.345Z,989.68
2018-06-05T04:18:48.333Z,989.66
2018-06-05T04:19:48.317Z,989.67
2018-06-05T04:20:48.305Z,989.67
2018-06-05T04:21:48.292Z,989.67
2018-06-05T04:22:48.276Z,989.65
2018-06-05T04:23:48.279Z,989.66
2018-06-05T04:24:48.247Z,989.64
2018-06-05T04:25:48.228Z,989.65
2018-06-05T04:26:48.215Z,989.70
2018-06-05T04:27:48.200Z,989.71
2018-06-05T04:28:48.190Z,989.68
2018-06-05T04:29:48.173Z,989.69
2018-06-05T04:30:48.164Z,989.71
2018-06-05T04:31:48.149Z,989.71
2018-06-05T04:32:48.142Z,989.72
2018-06-05T04:33:48.115Z,989.75
2018-06-05T04:34:48.099Z,989.75
2018-06-05T04:35:48.080Z,989.77
2018-06-05T04:36:48.067Z,989.78
2018-06-05T04:37:48.057Z,989.79
2018-06-05T04:38:48.045Z,989.79
2018-06-05T04:39:48.062Z,989.76
2018-06-05T04:40:48.017Z,989.75
2018-06-05T04:41:47.997Z,989.79
2018-06-05T04:42:47.988Z,989.79
2018-06-05T04:43:47.974Z,989.80
2018-06-05T04:44:47.965Z,989.80
2018-06-05T04:45:47.949Z,989.80
2018-06-05T04:46:47.936Z,989.83
2018-06-05T04:47:47.940Z,989.82
2018-06-05T04:48:47.906Z,989.85
2018-06-05T04:49:47.893Z,989.83
2018-06-05T04:50:47.881Z,989.83
2018-06-05T04:51:47.874Z,989.84
2018-06-05T04:52:47.858Z,989.88
2018-06-05T04:53:47.835Z,989.86
2018-06-05T04:54:47.823Z,989.88
2018-06-05T04:55:47.807Z,989.89
2018-06-05T04:56:47.794Z,989.92
2018-06-05T04:57:47.785Z,989.94
2018-06-05T04:58:47.774Z,989.93
2018-06-05T04:59:47.755Z,989.94
2018-06-05T05:00:47.746Z,989.94
2018-06-05T05:01:47.728Z,989.97
2018-06-05T05:02:47.713Z,989.97
2018-06-05T05:03:47.697Z,989.97
2018-06-05T05:04:47.701Z,989.97
2018-06-05T05:05:47.678Z,989.97
2018-06-05T05:06:47.662Z,989.97
2018-06-05T05:07:47.650Z,989.99
2018-06-05T05:08:47.633Z,990.03
2018-06-05T05:09:47.621Z,990.04
2018-06-05T05:10:47.608Z,990.00
2018-06-05T05:11:47.593Z,990.02
2018-06-05T05:12:47.579Z,989.99
2018-06-05T05:13:47.563Z,989.99
2018-06-05T05:14:47.556Z,990.02
2018-06-05T05:15:47.544Z,989.99
2018-06-05T05:16:47.522Z,990.01
2018-06-05T05:17:47.515Z,989.98
2018-06-05T05:18:47.505Z,990.01
2018-06-05T05:19:47.502Z,990.02
2018-06-05T05:20:47.482Z,990.03
2018-06-05T05:21:47.467Z,990.04
2018-06-05T05:22:47.455Z,990.04
2018-06-05T05:23:47.441Z,990.04
2018-06-05T05:24:47.425Z,990.06
2018-06-05T05:25:47.419Z,990.08
2018-06-05T05:26:47.406Z,990.08
2018-06-05T05:27:47.390Z,990.07
2018-06-05T05:28:47.377Z,990.08
2018-06-05T05:29:47.371Z,990.10
2018-06-05T05:30:47.356Z,990.06
2018-06-05T05:31:47.342Z,990.03
2018-06-05T05:32:47.332Z,990.03
2018-06-05T05:33:47.320Z,990.03
2018-06-05T05:34:47.303Z,990.07
2018-06-05T05:35:47.293Z,990.04
2018-06-05T05:36:47.284Z,990.04
2018-06-05T05:37:47.270Z,990.08
2018-06-05T05:38:47.261Z,990.11
2018-06-05T05:39:47.243Z,990.13
2018-06-05T05:40:47.239Z,990.16
2018-06-05T05:41:47.216Z,990.13
2018-06-05T05:42:47.213Z,990.14
2018-06-05T05:43:47.207Z,990.12
2018-06-05T05:44:47.191Z,990.13
2018-06-05T05:45:47.178Z,990.14
2018-06-05T05:46:47.169Z,990.15
2018-06-05T05:47:47.152Z,990.18
2018-06-05T05:48:47.146Z,990.16
2018-06-05T05:49:47.127Z,990.15
2018-06-05T05:50:47.123Z,990.16
2018-06-05T05:51:47.113Z,990.15
2018-06-05T05:52:47.103Z,990.19
2018-06-05T05:53:47.089Z,990.18
2018-06-05T05:54:47.116Z,990.21
2018-06-05T05:55:47.068Z,990.20
2018-06-05T05:56:47.049Z,990.19
2018-06-05T05:57:47.042Z,990.20
2018-06-05T05:58:47.032Z,990.21
2018-06-05T05:59:47.026Z,990.19
2018-06-05T06:00:47.014Z,990.21
2018-06-05T06:01:47.003Z,990.20
2018-06-05T06:02:46.991Z,990.21
2018-06-05T06:03:46.991Z,990.25
2018-06-05T06:04:46.969Z,990.25
2018-06-05T06:05:46.956Z,990.24
2018-06-05T06:06:46.943Z,990.21
2018-06-05T06:07:46.934Z,990.23
2018-06-05T06:08:46.924Z,990.22
2018-06-05T06:09:46.916Z,990.23
2018-06-05T06:10:46.937Z,990.22
2018-06-05T06:11:46.896Z,990.21
2018-06-05T06:12:46.880Z,990.24
2018-06-05T06:13:46.870Z,990.24
2018-06-05T06:14:46.860Z,990.21
2018-06-05T06:15:46.854Z,990.17
2018-06-05T06:16:46.848Z,990.21
2018-06-05T06:17:46.831Z,990.15
2018-06-05T06:18:46.820Z,990.17
2018-06-05T06:19:46.812Z,990.13
2018-06-05T06:20:46.800Z,990.16
2018-06-05T06:21:46.790Z,990.15
2018-06-05T06:22:46.781Z,990.17
2018-06-05T06:23:46.771Z,990.16
2018-06-05T06:24:46.758Z,990.19
2018-06-05T06:25:46.749Z,990.19
2018-06-05T06:26:46.739Z,990.23
2018-06-05T06:27:46.729Z,990.22
2018-06-05T06:28:46.719Z,990.22
2018-06-05T06:29:46.707Z,990.22
2018-06-05T06:30:46.701Z,990.27
2018-06-05T06:31:46.688Z,990.27
2018-06-05T06:32:46.676Z,990.28
2018-06-05T06:33:46.666Z,990.27
2018-06-05T06:34:46.656Z,990.25
2018-06-05T06:35:46.654Z,990.24
2018-06-05T06:36:46.643Z,990.21
2018-06-05T06:37:46.627Z,990.24
2018-06-05T06:38:46.615Z,990.22
2018-06-05T06:39:46.615Z,990.23
2018-06-05T06:40:46.602Z,990.21
2018-06-05T06:41:46.592Z,990.19
2018-06-05T06:42:46.583Z,990.24
2018-06-05T06:43:46.573Z,990.19
2018-06-05T06:44:46.564Z,990.23
2018-06-05T06:45:46.554Z,990.21
2018-06-05T06:46:46.548Z,990.21
2018-06-05T06:47:46.538Z,990.20
2018-06-05T06:48:46.540Z,990.16
2018-06-05T06:49:46.513Z,990.21
2018-06-05T06:50:46.507Z,990.17
2018-06-05T06:51:46.501Z,990.19
2018-06-05T06:52:46.491Z,990.16
2018-06-05T06:53:46.487Z,990.19
2018-06-05T06:54:46.542Z,990.18
2018-06-05T06:55:46.462Z,990.19
2018-06-05T06:56:46.459Z,990.20
2018-06-05T06:57:46.453Z,990.24
2018-06-05T06:58:46.440Z,990.22
2018-06-05T06:59:46.427Z,990.24
2018-06-05T07:00:46.422Z,990.25
2018-06-05T07:01:46.430Z,990.29
2018-06-05T07:02:46.405Z,990.26
2018-06-05T07:03:46.395Z,990.27
2018-06-05T07:04:46.386Z,990.20
2018-06-05T07:05:46.376Z,990.22
2018-06-05T07:06:46.366Z,990.21
2018-06-05T07:07:46.363Z,990.20
2018-06-05T07:08:46.368Z,990.19
2018-06-05T07:09:46.344Z,990.21
2018-06-05T07:10:46.334Z,990.14
2018-06-05T07:11:46.325Z,990.16
2018-06-05T07:12:46.316Z,990.15
2018-06-05T07:13:46.304Z,990.16
2018-06-05T07:14:46.312Z,990.15
2018-06-05T07:15:46.293Z,990.17
2018-06-05T07:16:46.284Z,990.16
2018-06-05T07:17:46.276Z,990.19
2018-06-05T07:18:46.272Z,990.20
2018-06-05T07:19:46.261Z,990.18
2018-06-05T07:20:46.248Z,990.19
2018-06-05T07:21:46.245Z,990.22
2018-06-05T07:22:46.239Z,990.23
2018-06-05T07:23:46.232Z,990.26
2018-06-05T07:24:46.216Z,990.26
2018-06-05T07:25:46.217Z,990.26
2018-06-05T07:26:46.208Z,990.23
2018-06-05T07:27:46.203Z,990.29
2018-06-05T07:28:46.196Z,990.31
2018-06-05T07:29:46.184Z,990.30
2018-06-05T07:30:46.181Z,990.29
2018-06-05T07:31:46.169Z,990.29
2018-06-05T07:32:46.162Z,990.30
2018-06-05T07:33:46.152Z,990.33
2018-06-05T07:34:46.155Z,990.32
2018-06-05T07:35:46.189Z,990.34
2018-06-05T07:36:46.141Z,990.34
2018-06-05T07:37:46.133Z,990.35
2018-06-05T07:38:46.134Z,990.30
2018-06-05T07:39:46.127Z,990.31
2018-06-05T07:40:46.121Z,990.29
2018-06-05T07:41:46.121Z,990.31
2018-06-05T07:42:46.107Z,990.31
2018-06-05T07:43:46.106Z,990.33
2018-06-05T07:44:46.100Z,990.36
2018-06-05T07:45:46.097Z,990.36
2018-06-05T07:46:46.094Z,990.34
2018-06-05T07:47:46.091Z,990.30
2018-06-05T07:48:46.084Z,990.27
2018-06-05T07:49:46.078Z,990.26
2018-06-05T07:50:46.072Z,990.28
2018-06-05T07:51:46.068Z,990.28
2018-06-05T07:52:46.059Z,990.28
2018-06-05T07:53:46.059Z,990.31
2018-06-05T07:54:46.056Z,990.30
2018-06-05T07:55:46.056Z,990.30
2018-06-05T07:56:46.052Z,990.32
2018-06-05T07:57:46.049Z,990.30
2018-06-05T07:58:46.042Z,990.30
2018-06-05T07:59:46.043Z,990.29
2018-06-05T08:00:46.033Z,990.29
2018-06-05T08:01:46.030Z,990.28
2018-06-05T08:02:46.023Z,990.27
2018-06-05T08:03:46.023Z,990.28
2018-06-05T08:04:46.017Z,990.25
2018-06-05T08:05:46.014Z,990.27
2018-06-05T08:06:46.015Z,990.29
2018-06-05T08:07:46.011Z,990.25
2018-06-05T08:08:46.004Z,990.28
2018-06-05T08:09:46.001Z,990.30
2018-06-05T08:10:46.001Z,990.29
2018-06-05T08:11:46.039Z,990.24
2018-06-05T08:12:45.994Z,990.26
2018-06-05T08:13:45.985Z,990.28
2018-06-05T08:14:45.985Z,990.29
2018-06-05T08:15:45.982Z,990.26
2018-06-05T08:16:45.973Z,990.25
2018-06-05T08:17:45.972Z,990.28
2018-06-05T08:18:45.976Z,990.28
2018-06-05T08:19:45.974Z,990.30
2018-06-05T08:20:45.965Z,990.32
2018-06-05T08:21:45.956Z,990.32
2018-06-05T08:22:45.956Z,990.34
2018-06-05T08:23:45.953Z,990.32
2018-06-05T08:24:45.953Z,990.27
2018-06-05T08:25:45.947Z,990.27
2018-06-05T08:26:45.947Z,990.28
2018-06-05T08:27:45.947Z,990.25
2018-06-05T08:28:45.947Z,990.27
2018-06-05T08:29:45.937Z,990.25
2018-06-05T08:30:45.931Z,990.30
2018-06-05T08:31:45.928Z,990.26
2018-06-05T08:32:45.934Z,990.25
2018-06-05T08:33:45.918Z,990.26
2018-06-05T08:34:45.921Z,990.29
2018-06-05T08:35:45.942Z,990.28
2018-06-05T08:36:45.913Z,990.28
2018-06-05T08:37:45.953Z,990.29
2018-06-05T08:38:45.910Z,990.30
2018-06-05T08:39:45.906Z,990.28
2018-06-05T08:40:45.897Z,990.28
2018-06-05T08:41:45.895Z,990.28
2018-06-05T08:42:45.904Z,990.27
2018-06-05T08:43:45.888Z,990.30
2018-06-05T08:44:45.890Z,990.32
2018-06-05T08:45:45.890Z,990.32
2018-06-05T08:46:45.887Z,990.32
2018-06-05T08:47:45.888Z,990.37
2018-06-05T08:48:45.877Z,990.36
2018-06-05T08:49:45.882Z,990.36
2018-06-05T08:50:45.874Z,990.31
2018-06-05T08:51:45.871Z,990.32
2018-06-05T08:52:45.871Z,990.36
2018-06-05T08:53:45.868Z,990.35
2018-06-05T08:54:45.858Z,990.34
2018-06-05T08:55:45.860Z,990.35
2018-06-05T08:56:45.858Z,990.38
2018-06-05T08:57:45.858Z,990.37
2018-06-05T08:58:45.852Z,990.38
2018-06-05T08:59:45.855Z,990.39
2018-06-05T09:00:45.845Z,990.39
2018-06-05T09:01:45.843Z,990.40
2018-06-05T09:02:45.842Z,990.40
2018-06-05T09:03:45.838Z,990.43
2018-06-05T09:04:45.836Z,990.39
2018-06-05T09:05:45.833Z,990.43
2018-06-05T09:06:45.826Z,990.44
2018-06-05T09:07:45.827Z,990.43
2018-06-05T09:08:45.824Z,990.44
2018-06-05T09:09:45.823Z,990.44
2018-06-05T09:10:45.868Z,990.43
2018-06-05T09:11:45.817Z,990.44
2018-06-05T09:12:45.846Z,990.42
2018-06-05T09:13:45.807Z,990.44
2018-06-05T09:14:45.807Z,990.43
2018-06-05T09:15:45.804Z,990.45
2018-06-05T09:16:45.801Z,990.44
2018-06-05T09:17:45.796Z,990.44
2018-06-05T09:18:45.798Z,990.41
2018-06-05T09:19:45.791Z,990.44
2018-06-05T09:20:45.794Z,990.47
2018-06-05T09:21:45.788Z,990.46
2018-06-05T09:22:45.785Z,990.40
2018-06-05T09:23:45.785Z,990.41
2018-06-05T09:24:45.782Z,990.44
2018-06-05T09:25:45.779Z,990.44
2018-06-05T09:26:45.775Z,990.44
2018-06-05T09:27:45.775Z,990.43
2018-06-05T09:28:45.766Z,990.42
2018-06-05T09:29:45.763Z,990.45
2018-06-05T09:30:45.766Z,990.45
2018-06-05T09:31:45.766Z,990.47
2018-06-05T09:32:45.760Z,990.46
2018-06-05T09:33:45.755Z,990.43
2018-06-05T09:34:45.756Z,990.42
2018-06-05T09:35:45.756Z,990.45
2018-06-05T09:36:45.753Z,990.43
2018-06-05T09:37:45.747Z,990.45
2018-06-05T09:38:45.749Z,990.42
2018-06-05T09:39:45.740Z,990.39
2018-06-05T09:40:45.740Z,990.42
2018-06-05T09:41:45.740Z,990.40
2018-06-05T09:42:45.737Z,990.41
2018-06-05T09:43:45.734Z,990.46
2018-06-05T09:44:45.733Z,990.44
2018-06-05T09:45:45.727Z,990.43
2018-06-05T09:46:45.726Z,990.44
2018-06-05T09:47:45.724Z,990.47
2018-06-05T09:48:45.721Z,990.39
2018-06-05T09:49:45.717Z,990.42
2018-06-05T09:50:45.716Z,990.37
2018-06-05T09:51:45.714Z,990.45
2018-06-05T09:52:45.714Z,990.41
2018-06-05T09:53:45.710Z,990.37
2018-06-05T09:54:45.706Z,990.39
2018-06-05T09:55:45.708Z,990.39
2018-06-05T09:56:45.697Z,990.44
2018-06-05T09:57:45.804Z,990.41
2018-06-05T09:58:45.699Z,990.45
2018-06-05T09:59:45.698Z,990.43
2018-06-05T10:00:45.691Z,990.44
2018-06-05T10:01:45.693Z,990.44
2018-06-05T10:02:45.685Z,990.41
2018-06-05T10:03:45.690Z,990.43
2018-06-05T10:04:45.680Z,990.43
2018-06-05T10:05:45.685Z,990.44
2018-06-05T10:06:45.679Z,990.43
2018-06-05T10:07:45.682Z,990.43
2018-06-05T10:08:45.673Z,990.42
2018-06-05T10:09:45.672Z,990.41
2018-06-05T10:10:45.673Z,990.38
2018-06-05T10:11:45.669Z,990.38
2018-06-05T10:12:45.669Z,990.38
2018-06-05T10:13:45.669Z,990.42
2018-06-05T10:14:45.669Z,990.39
2018-06-05T10:15:45.666Z,990.44
2018-06-05T10:16:45.668Z,990.40
2018-06-05T10:17:45.660Z,990.43
2018-06-05T10:18:45.657Z,990.39
2018-06-05T10:19:45.687Z,990.34
2018-06-05T10:20:45.659Z,990.33
2018-06-05T10:21:45.656Z,990.38
2018-06-05T10:22:45.653Z,990.34
2018-06-05T10:23:45.660Z,990.35
2018-06-05T10:24:45.659Z,990.39
2018-06-05T10:25:45.656Z,990.35
2018-06-05T10:26:45.656Z,990.34
2018-06-05T10:27:45.680Z,990.34
2018-06-05T10:28:45.654Z,990.37
2018-06-05T10:29:45.653Z,990.36
2018-06-05T10:30:45.653Z,990.36
2018-06-05T10:31:45.654Z,990.35
2018-06-05T10:32:45.657Z,990.33
2018-06-05T10:33:45.650Z,990.25
2018-06-05T10:34:45.661Z,990.29
2018-06-05T10:35:45.660Z,990.32
2018-06-05T10:36:45.660Z,990.32
2018-06-05T10:37:45.653Z,990.30
2018-06-05T10:38:45.661Z,990.30
2018-06-05T10:39:45.656Z,990.27
2018-06-05T10:40:45.668Z,990.26
2018-06-05T10:41:45.657Z,990.25
2018-06-05T10:42:45.665Z,990.22
2018-06-05T10:43:45.660Z,990.23
2018-06-05T10:44:45.670Z,990.24
2018-06-05T10:45:45.668Z,990.28
2018-06-05T10:46:45.674Z,990.23
2018-06-05T10:47:45.666Z,990.20
2018-06-05T10:48:45.673Z,990.25
2018-06-05T10:49:45.680Z,990.27
2018-06-05T10:50:45.682Z,990.19
2018-06-05T10:51:45.676Z,990.22
2018-06-05T10:52:45.683Z,990.27
2018-06-05T10:53:45.743Z,990.25
2018-06-05T10:54:45.683Z,990.26
2018-06-05T10:55:45.691Z,990.23
2018-06-05T10:56:45.689Z,990.25
2018-06-05T10:57:45.695Z,990.24
2018-06-05T10:58:45.688Z,990.21
2018-06-05T10:59:45.711Z,990.23
2018-06-05T11:00:45.701Z,990.26
2018-06-05T11:01:45.708Z,990.27
2018-06-05T11:02:45.711Z,990.30
2018-06-05T11:03:45.718Z,990.22
2018-06-05T11:04:45.723Z,990.26
2018-06-05T11:05:45.725Z,990.24
2018-06-05T11:06:45.725Z,990.24
2018-06-05T11:07:45.731Z,990.22
2018-06-05T11:08:45.728Z,990.24
2018-06-05T11:09:45.741Z,990.23
2018-06-05T11:10:45.744Z,990.19
2018-06-05T11:11:45.747Z,990.20
2018-06-05T11:12:45.794Z,990.20
2018-06-05T11:13:45.760Z,990.15
2018-06-05T11:14:45.766Z,990.15
2018-06-05T11:15:45.770Z,990.17
2018-06-05T11:16:45.776Z,990.15
2018-06-05T11:17:45.776Z,990.17
2018-06-05T11:18:45.786Z,990.15
2018-06-05T11:19:45.792Z,990.11
2018-06-05T11:20:45.792Z,990.11
2018-06-05T11:21:45.798Z,990.12
2018-06-05T11:22:45.802Z,990.10
2018-06-05T11:23:45.832Z,990.12
2018-06-05T11:24:45.821Z,990.14
2018-06-05T11:25:45.824Z,990.13
2018-06-05T11:26:45.837Z,990.10
2018-06-05T11:27:45.830Z,990.12
2018-06-05T11:28:45.846Z,990.08
2018-06-05T11:29:45.847Z,990.07
2018-06-05T11:30:45.853Z,990.06
2018-06-05T11:31:45.862Z,990.10
2018-06-05T11:32:45.869Z,990.04
2018-06-05T11:33:45.876Z,990.11
2018-06-05T11:34:45.878Z,990.12
2018-06-05T11:35:45.885Z,990.11
2018-06-05T11:36:45.925Z,990.11
2018-06-05T11:37:45.905Z,990.06
2018-06-05T11:38:45.907Z,990.14
2018-06-05T11:39:45.914Z,990.10
2018-06-05T11:40:45.926Z,990.10
2018-06-05T11:41:45.932Z,990.07
2018-06-05T11:42:45.944Z,990.07
2018-06-05T11:43:45.941Z,990.05
2018-06-05T11:44:45.948Z,990.06
2018-06-05T11:45:45.954Z,990.06
2018-06-05T11:46:45.976Z,990.06
2018-06-05T11:47:45.971Z,989.96
2018-06-05T11:48:45.980Z,990.00
2018-06-05T11:49:45.984Z,989.96
2018-06-05T11:50:45.994Z,990.00
2018-06-05T11:51:46.009Z,989.98
2018-06-05T11:52:46.018Z,989.99
2018-06-05T11:53:46.015Z,989.99
2018-06-05T11:54:46.028Z,989.99
2018-06-05T11:55:46.034Z,990.00
2018-06-05T11:56:46.044Z,989.98
2018-06-05T11:57:46.044Z,989.98
2018-06-05T11:58:46.060Z,989.99
2018-06-05T11:59:46.060Z,989.93
2018-06-05T12:00:46.087Z,989.95
2018-06-05T12:01:46.089Z,989.95
2018-06-05T12:02:46.089Z,989.91
2018-06-05T12:03:46.097Z,989.93
2018-06-05T12:04:46.118Z,989.84
2018-06-05T12:05:46.111Z,989.88
2018-06-05T12:06:46.122Z,989.88
2018-06-05T12:07:46.128Z,989.83
2018-06-05T12:08:46.135Z,989.89
2018-06-05T12:09:46.135Z,989.90
2018-06-05T12:10:46.151Z,989.86
2018-06-05T12:11:46.167Z,989.94
2018-06-05T12:12:46.161Z,989.88
2018-06-05T12:13:46.173Z,989.87
2018-06-05T12:14:46.184Z,989.84
2018-06-05T12:15:46.190Z,989.81
2018-06-05T12:16:46.193Z,989.90
2018-06-05T12:17:46.237Z,989.84
2018-06-05T12:18:46.215Z,989.85
2018-06-05T12:19:46.221Z,989.86
2018-06-05T12:20:46.231Z,989.80
2018-06-05T12:21:46.237Z,989.83
2018-06-05T12:22:46.253Z,989.79
2018-06-05T12:23:46.257Z,989.80
2018-06-05T12:24:46.269Z,989.77
2018-06-05T12:25:46.270Z,989.81
2018-06-05T12:26:46.276Z,989.79
2018-06-05T12:27:46.288Z,989.79
2018-06-05T12:28:46.289Z,989.77